Time;durP1;ratioP1;P1;durP2;ratioP2;P2;SDS_P1;SDS_P2;PMS_P1;PMS_P2;Temp;Humidity;BMP_temperature;BMP_pressure;BME280_temperature;BME280_humidity;BME280_pressure;Samples;Min_cycle;Max_cycle;Signal;HPM_P1;HPM_P2
2023/09/06 00:00:16;;;;;;;;;;;;;;;;;;5011592;28;19921;-63
2023/09/06 00:02:42;;;;;;;;;;;;;;;;;;5012574;28;20007;-63
2023/09/06 00:05:08;;;;;;;;;;;;;;;;;;5012657;28;20044;-63
2023/09/06 00:07:34;;;;;;;;;;;;;;;;;;5014335;28;19925;-63
2023/09/06 00:10:00;;;;;;;;;;;;;;;;;;5005128;28;19930;-63
2023/09/06 00:12:27;;;;;;;;;;;;;;;;;;5003250;28;19927;-63
2023/09/06 00:14:54;;;;;;;;;;;;;;;;;;5012283;28;19955;-63
2023/09/06 00:17:21;;;;;;;;;;;;;;;;;;5015377;28;19975;-63
2023/09/06 00:19:46;;;;;;;;;;;;;;;;;;5017079;28;19928;-63
2023/09/06 00:22:12;;;;;;;;;;;;;;;;;;5014106;28;19926;-63
2023/09/06 00:24:38;;;;;;;;;;;;;;;;;;5006560;28;20316;-63
2023/09/06 00:27:07;;;;;;;;;;;;;;;;;;5005095;28;19926;-64
2023/09/06 00:29:33;;;;;;;;;;;;;;;;;;5010696;28;19984;-64
2023/09/06 00:31:59;;;;;;;;;;;;;;;;;;5008377;28;19976;-64
2023/09/06 00:34:25;;;;;;;;;;;;;;;;;;5008354;28;19964;-64
2023/09/06 00:36:51;;;;;;;;;;;;;;;;;;5012276;28;19929;-64
2023/09/06 00:39:17;;;;;;;;;;;;;;;;;;5010926;28;19932;-64
2023/09/06 00:41:44;;;;;;;;;;;;;;;;;;5012495;28;20375;-64
2023/09/06 00:44:10;;;;;;;;;;;;;;;;;;5013170;28;19984;-64
2023/09/06 00:46:36;;;;;;;;;;;;;;;;;;5006049;28;19961;-64
2023/09/06 00:49:02;;;;;;;;;;;;;;;;;;5011153;28;19978;-64
2023/09/06 00:51:28;;;;;;;;;;;;;;;;;;5009620;28;19932;-64
2023/09/06 00:53:54;;;;;;;;;;;;;;;;;;5013130;28;19932;-64
2023/09/06 00:56:20;;;;;;;;;;;;;;;;;;5013224;28;19922;-64
2023/09/06 00:58:46;;;;;;;;;;;;;;;;;;5010403;28;20011;-64
2023/09/06 01:01:12;;;;;;;;;;;;;;;;;;5021889;28;19929;-64
2023/09/06 01:03:40;;;;;;;;;;;;;;;;;;4993884;28;20096;-64
2023/09/06 01:06:06;;;;;;;;;;;;;;;;;;5012171;28;19922;-64
2023/09/06 01:08:32;;;;;;;;;;;;;;;;;;5006288;28;20510;-63
2023/09/06 01:10:57;;;;;;;;;;;;;;;;;;5003826;28;19925;-64
2023/09/06 01:13:23;;;;;;;;;;;;;;;;;;5011690;28;19980;-64
2023/09/06 01:15:49;;;;;;;;;;;;;;;;;;5011061;28;19973;-64
2023/09/06 01:18:15;;;;;;;;;;;;;;;;;;5011241;28;19922;-63
2023/09/06 01:20:42;;;;;;;;;;;;;;;;;;5012991;28;19971;-64
2023/09/06 01:23:08;;;;;;;;;;;;;;;;;;5006885;28;19925;-64
2023/09/06 01:25:34;;;;;;;;;;;;;;;;;;5018733;28;19929;-64
2023/09/06 01:28:00;;;;;;;;;;;;;;;;;;5009936;28;20410;-64
2023/09/06 01:30:25;;;;;;;;;;;;;;;;;;5010249;28;19935;-64
2023/09/06 01:32:51;;;;;;;;;;;;;;;;;;5010411;28;20330;-64
2023/09/06 01:35:17;;;;;;;;;;;;;;;;;;4989412;28;19926;-64
2023/09/06 01:37:43;;;;;;;;;;;;;;;;;;5018398;28;19932;-63
2023/09/06 01:40:17;;;;;;;;;;;;;;;;;;5051067;28;20307;-63
2023/09/06 01:42:43;;;;;;;;;;;;;;;;;;5051399;28;20400;-63
2023/09/06 01:45:09;;;;;;;;;;;;;;;;;;5046667;28;20352;-64
2023/09/06 01:47:35;;;;;;;;;;;;;;;;;;5036732;28;19929;-64
2023/09/06 01:50:01;;;;;;;;;;;;;;;;;;5048099;28;19920;-64
2023/09/06 01:52:27;;;;;;;;;;;;;;;;;;5032555;28;19977;-64
2023/09/06 01:54:53;;;;;;;;;;;;;;;;;;5050119;28;20547;-63
2023/09/06 01:57:18;;;;;;;;;;;;;;;;;;5029361;28;19921;-63
2023/09/06 01:59:44;;;;;;;;;;;;;;;;;;5051609;28;19921;-63
2023/09/06 02:02:10;;;;;;;;;;;;;;;;;;5019218;28;19921;-64
2023/09/06 02:04:37;;;;;;;;;;;;;;;;;;5050579;28;19928;-63
2023/09/06 02:07:03;;;;;;;;;;;;;;;;;;5035645;28;19920;-64
2023/09/06 02:09:29;;;;;;;;;;;;;;;;;;5050057;28;20255;-63
2023/09/06 02:11:55;;;;;;;;;;;;;;;;;;5050040;28;19928;-63
2023/09/06 02:14:22;;;;;;;;;;;;;;;;;;5049292;28;20455;-63
2023/09/06 02:16:50;;;;;;;;;;;;;;;;;;5049621;28;19925;-63
2023/09/06 02:19:16;;;;;;;;;;;;;;;;;;5047081;28;19920;-63
2023/09/06 02:21:42;;;;;;;;;;;;;;;;;;5041684;28;19948;-63
2023/09/06 02:24:08;;;;;;;;;;;;;;;;;;5050275;28;19920;-63
2023/09/06 02:26:34;;;;;;;;;;;;;;;;;;5049037;28;19928;-63
2023/09/06 02:29:00;;;;;;;;;;;;;;;;;;5050560;28;20373;-63
2023/09/06 02:31:26;;;;;;;;;;;;;;;;;;5050156;28;19967;-63
2023/09/06 02:33:52;;;;;;;;;;;;;;;;;;5050067;28;19929;-63
2023/09/06 02:36:18;;;;;;;;;;;;;;;;;;5048819;28;19924;-63
2023/09/06 02:38:44;;;;;;;;;;;;;;;;;;5050220;28;19929;-63
2023/09/06 02:41:10;;;;;;;;;;;;;;;;;;5049897;28;19921;-63
2023/09/06 02:43:37;;;;;;;;;;;;;;;;;;5054493;28;19948;-64
2023/09/06 02:46:03;;;;;;;;;;;;;;;;;;5048427;28;19929;-63
2023/09/06 02:48:29;;;;;;;;;;;;;;;;;;5043227;28;19928;-63
2023/09/06 02:50:56;;;;;;;;;;;;;;;;;;5054533;28;19931;-63
2023/09/06 02:53:22;;;;;;;;;;;;;;;;;;5054999;28;19928;-63
2023/09/06 02:55:48;;;;;;;;;;;;;;;;;;5052822;28;20370;-64
2023/09/06 02:58:15;;;;;;;;;;;;;;;;;;5054621;28;19925;-63
2023/09/06 03:00:41;;;;;;;;;;;;;;;;;;5053202;28;19925;-63
2023/09/06 03:03:07;;;;;;;;;;;;;;;;;;5052683;28;20506;-63
2023/09/06 03:05:32;;;;;;;;;;;;;;;;;;5058469;28;19939;-63
2023/09/06 03:07:58;;;;;;;;;;;;;;;;;;5035666;28;19934;-63
2023/09/06 03:10:24;;;;;;;;;;;;;;;;;;5054402;28;19928;-64
2023/09/06 03:12:51;;;;;;;;;;;;;;;;;;5056371;28;19994;-64
2023/09/06 03:15:17;;;;;;;;;;;;;;;;;;5058325;28;19931;-64
2023/09/06 03:17:46;;;;;;;;;;;;;;;;;;5050924;28;20290;-64
2023/09/06 03:20:19;;;;;;;;;;;;;;;;;;5053686;28;19932;-64
2023/09/06 03:22:46;;;;;;;;;;;;;;;;;;5052717;28;20273;-63
2023/09/06 03:25:14;;;;;;;;;;;;;;;;;;5050496;28;19928;-63
2023/09/06 03:27:41;;;;;;;;;;;;;;;;;;5050898;28;20006;-63
2023/09/06 03:30:07;;;;;;;;;;;;;;;;;;5033505;28;19956;-63
2023/09/06 03:32:33;;;;;;;;;;;;;;;;;;5032044;28;19984;-63
2023/09/06 03:35:00;;;;;;;;;;;;;;;;;;5050189;28;20366;-63
2023/09/06 03:37:28;;;;;;;;;;;;;;;;;;5052886;28;20577;-64
2023/09/06 03:39:54;;;;;;;;;;;;;;;;;;5029703;28;19928;-64
2023/09/06 03:42:23;;;;;;;;;;;;;;;;;;5052750;28;20278;-64
2023/09/06 03:44:49;;;;;;;;;;;;;;;;;;5047808;28;19925;-64
2023/09/06 03:47:16;;;;;;;;;;;;;;;;;;5033513;28;19928;-63
2023/09/06 03:49:43;;;;;;;;;;;;;;;;;;5055530;28;19921;-63
2023/09/06 03:52:09;;;;;;;;;;;;;;;;;;5051226;28;19921;-63
2023/09/06 03:54:35;;;;;;;;;;;;;;;;;;5052398;28;19932;-63
2023/09/06 03:57:01;;;;;;;;;;;;;;;;;;5051476;28;19921;-63
2023/09/06 03:59:27;;;;;;;;;;;;;;;;;;5049574;28;19922;-63
2023/09/06 04:01:55;;;;;;;;;;;;;;;;;;5051381;28;19921;-63
2023/09/06 04:04:21;;;;;;;;;;;;;;;;;;5052708;28;19921;-63
2023/09/06 04:06:47;;;;;;;;;;;;;;;;;;5052559;28;20054;-63
2023/09/06 04:09:13;;;;;;;;;;;;;;;;;;5051747;28;19921;-63
2023/09/06 04:11:39;;;;;;;;;;;;;;;;;;5053049;28;19921;-64
2023/09/06 04:14:05;;;;;;;;;;;;;;;;;;5034213;28;19925;-63
2023/09/06 04:16:31;;;;;;;;;;;;;;;;;;5017802;28;20351;-63
2023/09/06 04:18:57;;;;;;;;;;;;;;;;;;5052383;28;19928;-64
2023/09/06 04:21:23;;;;;;;;;;;;;;;;;;5053477;28;19920;-63
2023/09/06 04:23:49;;;;;;;;;;;;;;;;;;5033998;28;19964;-63
2023/09/06 04:26:15;;;;;;;;;;;;;;;;;;5048866;28;20057;-63
2023/09/06 04:28:41;;;;;;;;;;;;;;;;;;5053199;28;20066;-63
2023/09/06 04:31:06;;;;;;;;;;;;;;;;;;5053036;28;19932;-63
2023/09/06 04:33:32;;;;;;;;;;;;;;;;;;5050689;28;19924;-63
2023/09/06 04:35:58;;;;;;;;;;;;;;;;;;5047490;28;19927;-63
2023/09/06 04:38:24;;;;;;;;;;;;;;;;;;5030472;28;19968;-64
2023/09/06 04:40:51;;;;;;;;;;;;;;;;;;5031469;28;19939;-64
2023/09/06 04:43:17;;;;;;;;;;;;;;;;;;5032667;28;19921;-64
2023/09/06 04:45:43;;;;;;;;;;;;;;;;;;5044066;28;20381;-63
2023/09/06 04:48:09;;;;;;;;;;;;;;;;;;5031167;28;20298;-63
2023/09/06 04:50:35;;;;;;;;;;;;;;;;;;5030470;28;20363;-64
2023/09/06 04:53:01;;;;;;;;;;;;;;;;;;5031842;28;19975;-63
2023/09/06 04:55:27;;;;;;;;;;;;;;;;;;5029361;28;19933;-63
2023/09/06 04:57:53;;;;;;;;;;;;;;;;;;5031080;28;20394;-63
2023/09/06 05:00:30;;;;;;;;;;;;;;;;;;5031016;28;19933;-63
2023/09/06 05:02:56;;;;;;;;;;;;;;;;;;5025164;28;19928;-63
2023/09/06 05:05:22;;;;;;;;;;;;;;;;;;5030064;28;20007;-63
2023/09/06 05:07:48;;;;;;;;;;;;;;;;;;5030226;28;20487;-63
2023/09/06 05:10:14;;;;;;;;;;;;;;;;;;5030055;28;19929;-63
2023/09/06 05:12:40;;;;;;;;;;;;;;;;;;5031572;28;19921;-63
2023/09/06 05:15:06;;;;;;;;;;;;;;;;;;5030017;28;20380;-64
2023/09/06 05:17:34;;;;;;;;;;;;;;;;;;5031519;28;19925;-64
2023/09/06 05:20:00;;;;;;;;;;;;;;;;;;5030290;28;20341;-63
2023/09/06 05:22:26;;;;;;;;;;;;;;;;;;5031636;28;19921;-63
2023/09/06 05:24:52;;;;;;;;;;;;;;;;;;5030348;28;19929;-63
2023/09/06 05:27:18;;;;;;;;;;;;;;;;;;5026877;28;19974;-63
2023/09/06 05:29:44;;;;;;;;;;;;;;;;;;5031660;28;20343;-63
2023/09/06 05:32:11;;;;;;;;;;;;;;;;;;5031582;28;19921;-63
2023/09/06 05:34:36;;;;;;;;;;;;;;;;;;5031043;28;20059;-64
2023/09/06 05:37:02;;;;;;;;;;;;;;;;;;5029368;28;20007;-64
2023/09/06 05:39:28;;;;;;;;;;;;;;;;;;5046394;28;19931;-63
2023/09/06 05:41:54;;;;;;;;;;;;;;;;;;5049954;28;19921;-63
2023/09/06 05:44:20;;;;;;;;;;;;;;;;;;5048355;28;19925;-63
2023/09/06 05:46:46;;;;;;;;;;;;;;;;;;5049616;28;19932;-63
2023/09/06 05:49:12;;;;;;;;;;;;;;;;;;5052320;28;19929;-63
2023/09/06 05:51:38;;;;;;;;;;;;;;;;;;5050027;28;19929;-63
2023/09/06 05:54:04;;;;;;;;;;;;;;;;;;5043958;28;19931;-64
2023/09/06 05:56:30;;;;;;;;;;;;;;;;;;5051512;28;19925;-64
2023/09/06 05:58:56;;;;;;;;;;;;;;;;;;5045043;28;19921;-64
2023/09/06 06:01:21;;;;;;;;;;;;;;;;;;5045592;28;19920;-64
2023/09/06 06:03:47;;;;;;;;;;;;;;;;;;5051279;28;19920;-64
2023/09/06 06:06:17;;;;;;;;;;;;;;;;;;5055164;28;19978;-63
2023/09/06 06:08:43;;;;;;;;;;;;;;;;;;5050620;28;20442;-63
2023/09/06 06:11:09;;;;;;;;;;;;;;;;;;5030577;28;20343;-64
2023/09/06 06:13:35;;;;;;;;;;;;;;;;;;5034056;28;20015;-63
2023/09/06 06:16:00;;;;;;;;;;;;;;;;;;5055984;28;19925;-64
2023/09/06 06:18:26;;;;;;;;;;;;;;;;;;5053158;28;19962;-64
2023/09/06 06:20:52;;;;;;;;;;;;;;;;;;5036260;28;19932;-64
2023/09/06 06:23:18;;;;;;;;;;;;;;;;;;5050945;28;19979;-64
2023/09/06 06:25:44;;;;;;;;;;;;;;;;;;5053920;28;19933;-64
2023/09/06 06:28:10;;;;;;;;;;;;;;;;;;5051665;28;20412;-64
2023/09/06 06:30:36;;;;;;;;;;;;;;;;;;5055858;28;19925;-64
2023/09/06 06:33:02;;;;;;;;;;;;;;;;;;5053756;28;20386;-64
2023/09/06 06:35:28;;;;;;;;;;;;;;;;;;5054143;28;19982;-64
2023/09/06 06:37:53;;;;;;;;;;;;;;;;;;5034722;28;20302;-64
2023/09/06 06:40:19;;;;;;;;;;;;;;;;;;5053597;28;19921;-64
2023/09/06 06:42:45;;;;;;;;;;;;;;;;;;5027823;28;20302;-64
2023/09/06 06:45:11;;;;;;;;;;;;;;;;;;5023618;28;19925;-64
2023/09/06 06:47:37;;;;;;;;;;;;;;;;;;5035977;28;19928;-64
2023/09/06 06:50:06;;;;;;;;;;;;;;;;;;5031964;28;19921;-65
2023/09/06 06:52:33;;;;;;;;;;;;;;;;;;5052132;28;20286;-64
2023/09/06 06:54:59;;;;;;;;;;;;;;;;;;5018635;28;19925;-64
2023/09/06 06:57:25;;;;;;;;;;;;;;;;;;5047810;28;19967;-64
2023/09/06 06:59:50;;;;;;;;;;;;;;;;;;5054192;28;20057;-64
2023/09/06 07:02:16;;;;;;;;;;;;;;;;;;5034260;28;19925;-71
2023/09/06 07:04:42;;;;;;;;;;;;;;;;;;5048978;28;19935;-65
2023/09/06 07:07:08;;;;;;;;;;;;;;;;;;5052073;28;19956;-65
2023/09/06 07:09:34;;;;;;;;;;;;;;;;;;5071326;22;19935;-64
2023/09/06 07:12:00;;;;;;;;;;;;;;;;;;5073313;28;19921;-64
2023/09/06 07:14:26;;;;;;;;;;;;;;;;;;5063608;28;19986;-64
2023/09/06 07:16:54;;;;;;;;;;;;;;;;;;5073377;28;20281;-65
2023/09/06 07:19:20;;;;;;;;;;;;;;;;;;5065640;28;20544;-65
2023/09/06 07:21:46;;;;;;;;;;;;;;;;;;5073895;28;19959;-64
2023/09/06 07:24:14;;;;;;;;;;;;;;;;;;5072060;28;19920;-65
2023/09/06 07:26:41;;;;;;;;;;;;;;;;;;5073843;28;19994;-65
2023/09/06 07:29:06;;;;;;;;;;;;;;;;;;5072422;28;20442;-64
2023/09/06 07:31:32;;;;;;;;;;;;;;;;;;5073879;28;19920;-64
2023/09/06 07:33:58;;;;;;;;;;;;;;;;;;5050522;28;20023;-64
2023/09/06 07:36:24;;;;;;;;;;;;;;;;;;5052476;28;19929;-64
2023/09/06 07:38:54;;;;;;;;;;;;;;;;;;5071320;28;19920;-64
2023/09/06 07:41:20;;;;;;;;;;;;;;;;;;5071585;28;19978;-64
2023/09/06 07:43:46;;;;;;;;;;;;;;;;;;5073567;28;19920;-64
2023/09/06 07:46:12;;;;;;;;;;;;;;;;;;5068932;28;19965;-64
2023/09/06 07:48:38;;;;;;;;;;;;;;;;;;5073732;28;20523;-64
2023/09/06 07:51:04;;;;;;;;;;;;;;;;;;5065129;28;20438;-64
2023/09/06 07:53:30;;;;;;;;;;;;;;;;;;5072074;28;20003;-64
2023/09/06 07:55:56;;;;;;;;;;;;;;;;;;5069797;28;19924;-63
2023/09/06 07:58:22;;;;;;;;;;;;;;;;;;5047085;28;19931;-63
2023/09/06 08:00:48;;;;;;;;;;;;;;;;;;5071591;28;19927;-63
2023/09/06 08:03:14;;;;;;;;;;;;;;;;;;5071013;28;19969;-63
2023/09/06 08:05:40;;;;;;;;;;;;;;;;;;5073207;28;19920;-63
2023/09/06 08:08:06;;;;;;;;;;;;;;;;;;5071175;28;20317;-63
2023/09/06 08:10:32;;;;;;;;;;;;;;;;;;5072657;28;19920;-64
2023/09/06 08:12:58;;;;;;;;;;;;;;;;;;5053143;28;19920;-64
2023/09/06 08:15:24;;;;;;;;;;;;;;;;;;5072582;28;20300;-63
2023/09/06 08:17:51;;;;;;;;;;;;;;;;;;5071096;28;20040;-63
2023/09/06 08:20:16;;;;;;;;;;;;;;;;;;5072701;28;19927;-63
2023/09/06 08:22:42;;;;;;;;;;;;;;;;;;5044135;28;19924;-64
2023/09/06 08:25:08;;;;;;;;;;;;;;;;;;5071008;28;19928;-63
2023/09/06 08:27:34;;;;;;;;;;;;;;;;;;5072457;28;19956;-63
2023/09/06 08:30:00;;;;;;;;;;;;;;;;;;5068289;28;20290;-63
2023/09/06 08:32:26;;;;;;;;;;;;;;;;;;5072678;28;20011;-63
2023/09/06 08:34:52;;;;;;;;;;;;;;;;;;5070210;28;20302;-63
2023/09/06 08:37:18;;;;;;;;;;;;;;;;;;5071675;28;19925;-63
2023/09/06 08:39:44;;;;;;;;;;;;;;;;;;5067995;28;19924;-63
2023/09/06 08:42:10;;;;;;;;;;;;;;;;;;5054314;28;19930;-63
2023/09/06 08:44:36;;;;;;;;;;;;;;;;;;5070752;28;20003;-64
2023/09/06 08:47:02;;;;;;;;;;;;;;;;;;5072201;28;20003;-64
2023/09/06 08:49:28;;;;;;;;;;;;;;;;;;5066970;28;19931;-64
2023/09/06 08:51:54;;;;;;;;;;;;;;;;;;5057216;28;19928;-64
2023/09/06 08:54:19;;;;;;;;;;;;;;;;;;5047962;28;19947;-63
2023/09/06 08:56:45;;;;;;;;;;;;;;;;;;5051718;28;19955;-63
2023/09/06 08:59:12;;;;;;;;;;;;;;;;;;5071950;28;20006;-63
2023/09/06 09:01:37;;;;;;;;;;;;;;;;;;5070432;28;19930;-63
2023/09/06 09:04:03;;;;;;;;;;;;;;;;;;5071861;28;19925;-63
2023/09/06 09:06:29;;;;;;;;;;;;;;;;;;5043690;28;20365;-63
2023/09/06 09:08:55;;;;;;;;;;;;;;;;;;5071480;28;19929;-64
2023/09/06 09:11:21;;;;;;;;;;;;;;;;;;5045793;28;20385;-64
2023/09/06 09:13:47;;;;;;;;;;;;;;;;;;5071786;28;20012;-64
2023/09/06 09:16:13;;;;;;;;;;;;;;;;;;5052636;28;19935;-64
2023/09/06 09:18:39;;;;;;;;;;;;;;;;;;5069407;28;19924;-64
2023/09/06 09:21:05;;;;;;;;;;;;;;;;;;5072053;28;20015;-64
2023/09/06 09:23:30;;;;;;;;;;;;;;;;;;5065508;28;19974;-64
2023/09/06 09:25:56;;;;;;;;;;;;;;;;;;5053304;28;20042;-63
2023/09/06 09:28:22;;;;;;;;;;;;;;;;;;5069794;28;20003;-63
2023/09/06 09:30:48;;;;;;;;;;;;;;;;;;5071992;28;20308;-63
2023/09/06 09:33:14;;;;;;;;;;;;;;;;;;5058979;28;19921;-63
2023/09/06 09:35:40;;;;;;;;;;;;;;;;;;5071561;28;19931;-63
2023/09/06 09:38:06;;;;;;;;;;;;;;;;;;5051076;28;20019;-64
2023/09/06 09:40:32;;;;;;;;;;;;;;;;;;5068930;28;19924;-64
2023/09/06 09:42:58;;;;;;;;;;;;;;;;;;5052140;28;19920;-64
2023/09/06 09:45:30;;;;;;;;;;;;;;;;;;5069624;28;19939;-64
2023/09/06 09:47:56;;;;;;;;;;;;;;;;;;5053292;28;19924;-63
2023/09/06 09:50:22;;;;;;;;;;;;;;;;;;5069509;28;19999;-63
2023/09/06 09:52:48;;;;;;;;;;;;;;;;;;5071095;28;20042;-63
2023/09/06 09:55:17;;;;;;;;;;;;;;;;;;5067089;28;19983;-63
2023/09/06 09:57:43;;;;;;;;;;;;;;;;;;5071364;28;20270;-63
2023/09/06 10:00:11;;;;;;;;;;;;;;;;;;5051306;28;20416;-63
2023/09/06 10:02:37;;;;;;;;;;;;;;;;;;5071096;28;20311;-63
2023/09/06 10:05:08;;;;;;;;;;;;;;;;;;5069448;28;19924;-63
2023/09/06 10:07:34;;;;;;;;;;;;;;;;;;5050872;28;20457;-63
2023/09/06 10:09:59;;;;;;;;;;;;;;;;;;5050812;28;19927;-63
2023/09/06 10:12:25;;;;;;;;;;;;;;;;;;5052866;28;19994;-63
2023/09/06 10:14:51;;;;;;;;;;;;;;;;;;5069402;28;19962;-64
2023/09/06 10:17:17;;;;;;;;;;;;;;;;;;5071134;28;19921;-64
2023/09/06 10:19:43;;;;;;;;;;;;;;;;;;5069522;28;20374;-64
2023/09/06 10:22:09;;;;;;;;;;;;;;;;;;5070185;28;19990;-64
2023/09/06 10:24:35;;;;;;;;;;;;;;;;;;5067247;28;19931;-64
2023/09/06 10:27:01;;;;;;;;;;;;;;;;;;5070352;28;19927;-64
2023/09/06 10:29:26;;;;;;;;;;;;;;;;;;5059772;28;19920;-64
2023/09/06 10:31:53;;;;;;;;;;;;;;;;;;5066880;28;19925;-63
2023/09/06 10:34:19;;;;;;;;;;;;;;;;;;5041504;28;19947;-63
2023/09/06 10:36:45;;;;;;;;;;;;;;;;;;5065803;28;19921;-63
2023/09/06 10:39:14;;;;;;;;;;;;;;;;;;5070149;28;20007;-63
2023/09/06 10:41:40;;;;;;;;;;;;;;;;;;5065335;28;20442;-63
2023/09/06 10:44:07;;;;;;;;;;;;;;;;;;5070188;28;19928;-64
2023/09/06 10:46:33;;;;;;;;;;;;;;;;;;5068252;28;20032;-64
2023/09/06 10:48:59;;;;;;;;;;;;;;;;;;5070160;28;19924;-64
2023/09/06 10:51:25;;;;;;;;;;;;;;;;;;5038291;28;19921;-64
2023/09/06 10:53:50;;;;;;;;;;;;;;;;;;5059876;28;20029;-63
2023/09/06 10:56:16;;;;;;;;;;;;;;;;;;5050043;28;19928;-63
2023/09/06 10:58:43;;;;;;;;;;;;;;;;;;5069115;28;20061;-63
2023/09/06 11:01:09;;;;;;;;;;;;;;;;;;5073455;28;19938;-63
2023/09/06 11:03:35;;;;;;;;;;;;;;;;;;5048190;28;19925;-63
2023/09/06 11:06:04;;;;;;;;;;;;;;;;;;5074375;28;19925;-63
2023/09/06 11:08:30;;;;;;;;;;;;;;;;;;5071799;28;19932;-63
2023/09/06 11:10:57;;;;;;;;;;;;;;;;;;5074109;28;19920;-63
2023/09/06 11:13:26;;;;;;;;;;;;;;;;;;5054868;28;19975;-63
2023/09/06 11:15:52;;;;;;;;;;;;;;;;;;5055955;28;20534;-63
2023/09/06 11:18:18;;;;;;;;;;;;;;;;;;5065218;28;19925;-63
2023/09/06 11:20:44;;;;;;;;;;;;;;;;;;5052007;28;19974;-63
2023/09/06 11:23:10;;;;;;;;;;;;;;;;;;5065443;28;19928;-63
2023/09/06 11:25:36;;;;;;;;;;;;;;;;;;5070857;28;19978;-63
2023/09/06 11:28:02;;;;;;;;;;;;;;;;;;5074274;28;19928;-64
2023/09/06 11:30:32;;;;;;;;;;;;;;;;;;5067619;28;19927;-63
2023/09/06 11:32:58;;;;;;;;;;;;;;;;;;5072384;28;19927;-64
2023/09/06 11:35:26;;;;;;;;;;;;;;;;;;5071865;28;19932;-64
2023/09/06 11:37:52;;;;;;;;;;;;;;;;;;5073954;28;19931;-64
2023/09/06 11:40:20;;;;;;;;;;;;;;;;;;5071887;28;19924;-64
2023/09/06 11:42:46;;;;;;;;;;;;;;;;;;5071175;28;20374;-64
2023/09/06 11:45:17;;;;;;;;;;;;;;;;;;5068660;28;19978;-64
2023/09/06 11:47:43;;;;;;;;;;;;;;;;;;5055852;28;19960;-64
2023/09/06 11:50:11;;;;;;;;;;;;;;;;;;5071609;28;20050;-64
2023/09/06 11:52:39;;;;;;;;;;;;;;;;;;5073385;28;20412;-64
2023/09/06 11:55:08;;;;;;;;;;;;;;;;;;5038152;28;19925;-64
2023/09/06 11:57:35;;;;;;;;;;;;;;;;;;5051100;28;19935;-64
2023/09/06 12:00:01;;;;;;;;;;;;;;;;;;5065647;28;19920;-64
2023/09/06 12:02:27;;;;;;;;;;;;;;;;;;5067075;28;20003;-63
2023/09/06 12:04:54;;;;;;;;;;;;;;;;;;5065326;28;19924;-63
2023/09/06 12:07:23;;;;;;;;;;;;;;;;;;5067995;28;20428;-63
2023/09/06 12:09:49;;;;;;;;;;;;;;;;;;5038580;28;19928;-63
2023/09/06 12:12:17;;;;;;;;;;;;;;;;;;5071097;28;20297;-63
2023/09/06 12:14:43;;;;;;;;;;;;;;;;;;5073541;28;19928;-63
2023/09/06 12:17:11;;;;;;;;;;;;;;;;;;5043183;28;19920;-63
2023/09/06 12:19:37;;;;;;;;;;;;;;;;;;5071224;28;19920;-63
2023/09/06 12:22:05;;;;;;;;;;;;;;;;;;5042025;28;19920;-63
2023/09/06 12:24:31;;;;;;;;;;;;;;;;;;5048701;28;19920;-64
2023/09/06 12:26:58;;;;;;;;;;;;;;;;;;5072498;28;19931;-64
2023/09/06 12:29:24;;;;;;;;;;;;;;;;;;5070468;28;19924;-65
2023/09/06 12:31:50;;;;;;;;;;;;;;;;;;5072298;28;19927;-65
2023/09/06 12:34:16;;;;;;;;;;;;;;;;;;5059447;28;20023;-65
2023/09/06 12:36:42;;;;;;;;;;;;;;;;;;5072162;28;20007;-65
2023/09/06 12:39:08;;;;;;;;;;;;;;;;;;5069166;28;19927;-64
2023/09/06 12:41:34;;;;;;;;;;;;;;;;;;5071171;28;19928;-64
2023/09/06 12:44:00;;;;;;;;;;;;;;;;;;5050329;28;19927;-65
2023/09/06 12:46:26;;;;;;;;;;;;;;;;;;5068000;28;19936;-64
2023/09/06 12:48:52;;;;;;;;;;;;;;;;;;5065537;28;19924;-65
2023/09/06 12:51:18;;;;;;;;;;;;;;;;;;5051522;28;19931;-64
2023/09/06 12:53:44;;;;;;;;;;;;;;;;;;5071920;28;19924;-64
2023/09/06 12:56:11;;;;;;;;;;;;;;;;;;5067571;28;19924;-65
2023/09/06 12:58:38;;;;;;;;;;;;;;;;;;5046980;28;20546;-65
2023/09/06 13:01:08;;;;;;;;;;;;;;;;;;5064445;28;19963;-65
2023/09/06 13:03:34;;;;;;;;;;;;;;;;;;5053584;28;20393;-64
2023/09/06 13:06:00;;;;;;;;;;;;;;;;;;5060918;28;19963;-64
2023/09/06 13:08:26;;;;;;;;;;;;;;;;;;5075693;22;19971;-61
2023/09/06 13:10:52;;;;;;;;;;;;;;;;;;5071876;28;19920;-61
2023/09/06 13:13:18;;;;;;;;;;;;;;;;;;5052213;28;20334;-61
2023/09/06 13:15:44;;;;;;;;;;;;;;;;;;5071928;28;19924;-61
2023/09/06 13:18:10;;;;;;;;;;;;;;;;;;5070079;28;20427;-61
2023/09/06 13:20:35;;;;;;;;;;;;;;;;;;5072280;28;19924;-61
2023/09/06 13:23:01;;;;;;;;;;;;;;;;;;5051647;28;20269;-61
2023/09/06 13:25:27;;;;;;;;;;;;;;;;;;5071924;28;19920;-61
2023/09/06 13:27:53;;;;;;;;;;;;;;;;;;5052349;28;19932;-61
2023/09/06 13:30:19;;;;;;;;;;;;;;;;;;5072273;28;20333;-61
2023/09/06 13:32:45;;;;;;;;;;;;;;;;;;5070121;28;19976;-61
2023/09/06 13:35:11;;;;;;;;;;;;;;;;;;5070302;28;20167;-61
2023/09/06 13:37:37;;;;;;;;;;;;;;;;;;5071833;28;19931;-61
2023/09/06 13:40:04;;;;;;;;;;;;;;;;;;5051969;28;19921;-61
2023/09/06 13:42:31;;;;;;;;;;;;;;;;;;5053430;28;19939;-61
2023/09/06 13:44:56;;;;;;;;;;;;;;;;;;5057779;28;20308;-61
2023/09/06 13:47:22;;;;;;;;;;;;;;;;;;5071644;28;20041;-61
2023/09/06 13:49:49;;;;;;;;;;;;;;;;;;5069502;28;19924;-61
2023/09/06 13:52:15;;;;;;;;;;;;;;;;;;5046072;28;19920;-61
2023/09/06 13:54:41;;;;;;;;;;;;;;;;;;5067779;28;19950;-61
2023/09/06 13:57:07;;;;;;;;;;;;;;;;;;5057046;28;19924;-62
2023/09/06 13:59:33;;;;;;;;;;;;;;;;;;5069230;28;19920;-62
2023/09/06 14:01:59;;;;;;;;;;;;;;;;;;5052860;28;19925;-62
2023/09/06 14:04:25;;;;;;;;;;;;;;;;;;5069012;28;19954;-62
2023/09/06 14:06:53;;;;;;;;;;;;;;;;;;5069000;28;19920;-61
2023/09/06 14:09:18;;;;;;;;;;;;;;;;;;5070452;28;20079;-61
2023/09/06 14:11:45;;;;;;;;;;;;;;;;;;5068752;28;20044;-61
2023/09/06 14:14:11;;;;;;;;;;;;;;;;;;5070422;28;19920;-61
2023/09/06 14:16:37;;;;;;;;;;;;;;;;;;5068189;28;19969;-61
2023/09/06 14:19:03;;;;;;;;;;;;;;;;;;5070533;28;19931;-61
2023/09/06 14:21:30;;;;;;;;;;;;;;;;;;5068290;28;19970;-61
2023/09/06 14:23:56;;;;;;;;;;;;;;;;;;5051828;28;20018;-61
2023/09/06 14:26:22;;;;;;;;;;;;;;;;;;5068964;28;20024;-61
2023/09/06 14:28:48;;;;;;;;;;;;;;;;;;5052434;28;19927;-61
2023/09/06 14:31:14;;;;;;;;;;;;;;;;;;5034096;28;19952;-61
2023/09/06 14:33:40;;;;;;;;;;;;;;;;;;5068776;28;19967;-61
2023/09/06 14:36:06;;;;;;;;;;;;;;;;;;5055107;28;20381;-61
2023/09/06 14:38:32;;;;;;;;;;;;;;;;;;5052440;28;19929;-61
2023/09/06 14:40:58;;;;;;;;;;;;;;;;;;5073772;28;19924;-61
2023/09/06 14:43:24;;;;;;;;;;;;;;;;;;5072639;28;19921;-62
2023/09/06 14:45:49;;;;;;;;;;;;;;;;;;5071235;28;19961;-61
2023/09/06 14:48:15;;;;;;;;;;;;;;;;;;5072583;28;19920;-62
2023/09/06 14:50:41;;;;;;;;;;;;;;;;;;5074121;28;19925;-62
2023/09/06 14:53:07;;;;;;;;;;;;;;;;;;5067093;28;20427;-62
2023/09/06 14:55:34;;;;;;;;;;;;;;;;;;5073447;28;20390;-62
2023/09/06 14:58:00;;;;;;;;;;;;;;;;;;5071958;28;19932;-61
2023/09/06 15:00:26;;;;;;;;;;;;;;;;;;5074016;28;19925;-62
2023/09/06 15:02:51;;;;;;;;;;;;;;;;;;5072231;28;19921;-61
2023/09/06 15:05:17;;;;;;;;;;;;;;;;;;5073945;28;20039;-61
2023/09/06 15:07:43;;;;;;;;;;;;;;;;;;5070624;28;19948;-61
2023/09/06 15:10:14;;;;;;;;;;;;;;;;;;5074218;28;20358;-62
2023/09/06 15:12:40;;;;;;;;;;;;;;;;;;5055587;28;19924;-62
2023/09/06 15:15:06;;;;;;;;;;;;;;;;;;5073511;28;20385;-61
2023/09/06 15:17:32;;;;;;;;;;;;;;;;;;5055940;28;19924;-62
2023/09/06 15:19:58;;;;;;;;;;;;;;;;;;5073640;28;19921;-62
2023/09/06 15:22:23;;;;;;;;;;;;;;;;;;5037601;28;19931;-61
2023/09/06 15:24:49;;;;;;;;;;;;;;;;;;5073293;28;19990;-61
2023/09/06 15:27:15;;;;;;;;;;;;;;;;;;5072280;28;19954;-61
2023/09/06 15:29:44;;;;;;;;;;;;;;;;;;5073625;28;19921;-61
2023/09/06 15:32:10;;;;;;;;;;;;;;;;;;5069558;28;19920;-61
2023/09/06 15:34:39;;;;;;;;;;;;;;;;;;5073725;28;19932;-62
2023/09/06 15:37:06;;;;;;;;;;;;;;;;;;5056226;28;19969;-61
2023/09/06 15:39:32;;;;;;;;;;;;;;;;;;5073739;28;19967;-61
2023/09/06 15:41:58;;;;;;;;;;;;;;;;;;5056298;28;20347;-62
2023/09/06 15:44:23;;;;;;;;;;;;;;;;;;5058746;28;19965;-61
2023/09/06 15:46:55;;;;;;;;;;;;;;;;;;5068908;28;19920;-62
2023/09/06 15:49:22;;;;;;;;;;;;;;;;;;5072908;28;20438;-61
2023/09/06 15:51:48;;;;;;;;;;;;;;;;;;5063942;28;19924;-62
2023/09/06 15:54:13;;;;;;;;;;;;;;;;;;5073546;28;20054;-61
2023/09/06 15:56:42;;;;;;;;;;;;;;;;;;5051519;28;19997;-62
2023/09/06 15:59:08;;;;;;;;;;;;;;;;;;5071494;28;20351;-61
2023/09/06 16:01:34;;;;;;;;;;;;;;;;;;5072283;28;20058;-62
2023/09/06 16:04:00;;;;;;;;;;;;;;;;;;5065070;28;19921;-61
2023/09/06 16:06:26;;;;;;;;;;;;;;;;;;5063726;28;20687;-61
2023/09/06 16:08:52;;;;;;;;;;;;;;;;;;5070211;28;20045;-62
2023/09/06 16:11:18;;;;;;;;;;;;;;;;;;5073326;28;20431;-62
2023/09/06 16:13:44;;;;;;;;;;;;;;;;;;5070268;28;19974;-61
2023/09/06 16:16:10;;;;;;;;;;;;;;;;;;5051257;28;19971;-62
2023/09/06 16:18:36;;;;;;;;;;;;;;;;;;5054823;28;20400;-62
2023/09/06 16:21:04;;;;;;;;;;;;;;;;;;5050377;28;19926;-62
2023/09/06 16:23:30;;;;;;;;;;;;;;;;;;5050792;28;19928;-62
2023/09/06 16:25:56;;;;;;;;;;;;;;;;;;5064197;28;19929;-61
2023/09/06 16:28:22;;;;;;;;;;;;;;;;;;5066007;28;19947;-62
2023/09/06 16:30:48;;;;;;;;;;;;;;;;;;5069126;28;19921;-63
2023/09/06 16:33:14;;;;;;;;;;;;;;;;;;5075964;28;19963;-61
2023/09/06 16:35:40;;;;;;;;;;;;;;;;;;5053472;28;19932;-60
2023/09/06 16:38:06;;;;;;;;;;;;;;;;;;5066876;28;19924;-60